This is the latest recevied weather packets stored in our database for station/object OK1FPA-13. If no packets are shown the sender has not sent any weather packets the latest 10 day(s).
| Time | Temp. | Humidity | Pressure | Rain* | Wind** | Luminosity | Snow |
|---|---|---|---|---|---|---|---|
| 1777161852 | 10° C | 52% | 1013.3 hPa | - | - | - | - |
| 1777161251 | 10.56° C | 51% | 1013.1 hPa | - | - | - | - |
| 1777160651 | 10.56° C | 50% | 1013.1 hPa | - | - | - | - |
| 1777160052 | 11.11° C | 49% | 1012.8 hPa | - | - | - | - |
| 1777159451 | 11.11° C | 49% | 1012.7 hPa | - | - | - | - |
| 1777158852 | 11.11° C | 49% | 1012.7 hPa | - | - | - | - |
| 1777158251 | 11.11° C | 48% | 1012.7 hPa | - | - | - | - |
| 1777157651 | 11.11° C | 48% | 1012.6 hPa | - | - | - | - |
| 1777157051 | 11.11° C | 47% | 1012.6 hPa | - | - | - | - |
| 1777156451 | 11.11° C | 45% | 1012.5 hPa | - | - | - | - |
| 1777155851 | 11.67° C | 43% | 1012.3 hPa | - | - | - | - |
| 1777155251 | 12.22° C | 41% | 1012.4 hPa | - | - | - | - |
| 1777154651 | 12.22° C | 39% | 1012.2 hPa | - | - | - | - |
| 1777154052 | 12.22° C | 39% | 1011.9 hPa | - | - | - | - |
| 1777153451 | 11.67° C | 41% | 1011.8 hPa | - | - | - | - |
| 1777152851 | 11.67° C | 42% | 1011.7 hPa | - | - | - | - |
| 1777152252 | 11.67° C | 42% | 1011.6 hPa | - | - | - | - |
| 1777151651 | 11.67° C | 41% | 1011.6 hPa | - | - | - | - |
| 1777151051 | 10° C | 46% | 1011.6 hPa | - | - | - | - |
| 1777150451 | 10.56° C | 44% | 1011.6 hPa | - | - | - | - |
| 1777149852 | 11.67° C | 43% | 1011.6 hPa | - | - | - | - |
| 1777149252 | 11.67° C | 42% | 1011.6 hPa | - | - | - | - |
| 1777148652 | 12.22° C | 41% | 1011.5 hPa | - | - | - | - |
| 1777148052 | 12.78° C | 40% | 1011.5 hPa | - | - | - | - |
| 1777147452 | 12.78° C | 38% | 1011.5 hPa | - | - | - | - |
* Rain since midnight (hover to see other rain measurements)
** Current wind speed in m/s (hover to see current wind gust speed)